Terminal Aerodrome Forecast
Issued by NWS

Home | Current Version | Previous Version | Text Only | Print | Product List | Glossary On
Versions: 1 2 3 4 5 6 7 8 9 10 11 12 13 14 15 16 17 18 19 20 21 22 23
234
FTUS46 KMFR 232345
TAFRBG
TAF
KRBG 232345Z 2400/2424 VRB03KT P6SM SCT040 OVC080
     FM240400 17004KT P6SM VCSH SCT025 OVC050
     FM240700 17004KT P6SM -SHSNRA BKN020 OVC040
     FM241000 17005KT 5SM -SHSNRA BKN009 OVC015
     FM241600 22010G18KT 5SM -RA SCT009 BKN015 OVC035=

USA.gov is the U.S. government's official web portal to all federal, state and local government web resources and services.